Time;durP1;ratioP1;P1;durP2;ratioP2;P2;SDS_P1;SDS_P2;PMS_P1;PMS_P2;Temp;Humidity;BMP_temperature;BMP_pressure;BME280_temperature;BME280_humidity;BME280_pressure;Samples;Min_cycle;Max_cycle;Signal;HPM_P1;HPM_P2
2023/03/03 00:01:20;;;;;;;;;;;-0.50;99.90;;;-1.61;100.00;97905.69;4965717;28;1782;-79
2023/03/03 00:03:48;;;;;;;;;;;-0.70;99.90;;;-1.49;100.00;97908.34;4953029;28;1720;-80
2023/03/03 00:06:15;;;;;;;;;;;-0.70;99.90;;;-1.42;100.00;97901.63;4972951;28;2515;-79
2023/03/03 00:08:42;;;;;;;;;;;-0.70;99.90;;;-1.43;100.00;97903.34;4977575;28;1917;-80
2023/03/03 00:11:10;;;;;;;;;;;-0.70;99.90;;;-1.27;100.00;97897.53;4978369;28;1891;-80
2023/03/03 00:13:48;;;;;;;;;;;-0.70;99.90;;;-1.45;100.00;97904.16;4978127;28;1632;-79
2023/03/03 00:16:29;;;;;;;;;;;-0.60;99.90;;;-1.51;100.00;97903.22;4964480;28;1569;-79
2023/03/03 00:18:56;;;;;;;;;;;-0.70;99.90;;;-1.53;100.00;97910.03;4973759;28;1708;-81
2023/03/03 00:21:28;;;;;;;;;;;-0.80;99.90;;;-1.44;100.00;97909.25;4969804;28;1597;-81
2023/03/03 00:24:15;;;;;;;;;;;-0.80;99.90;;;-1.40;100.00;97910.16;4952727;28;1571;-81
2023/03/03 00:26:56;;;;;;;;;;;-0.70;99.90;;;-1.74;100.00;97909.78;4961340;28;1579;-81
2023/03/03 00:29:34;;;;;;;;;;;-0.70;99.90;;;-1.63;100.00;97920.94;4970661;28;1664;-81
2023/03/03 00:32:26;;;;;;;;;;;-0.90;99.90;;;-1.57;100.00;97910.84;4969406;28;1979;-80
2023/03/03 00:34:55;;;;;;;;;;;-0.80;99.90;;;-1.49;100.00;97910.91;4971017;28;1496;-81
2023/03/03 00:37:34;;;;;;;;;;;-0.80;99.90;;;-1.67;100.00;97916.63;4969366;28;1551;-82
2023/03/03 00:40:15;;;;;;;;;;;-0.90;99.90;;;-1.81;100.00;97910.56;4984906;28;1588;-82
2023/03/03 00:42:47;;;;;;;;;;;-1.00;99.90;;;-1.80;100.00;97919.88;4953310;28;2182;-82
2023/03/03 00:45:42;;;;;;;;;;;-1.10;99.90;;;-1.64;100.00;97919.25;4971936;28;1656;-81
2023/03/03 00:48:39;;;;;;;;;;;-1.00;99.90;;;-1.98;100.00;97913.75;4967024;28;1558;-81
2023/03/03 00:51:21;;;;;;;;;;;-1.00;99.90;;;-2.04;100.00;97923.00;4947550;28;1980;-82
2023/03/03 00:53:49;;;;;;;;;;;-1.10;99.90;;;-1.93;100.00;97922.28;4964774;28;1576;-81
2023/03/03 00:56:16;;;;;;;;;;;-1.20;99.90;;;-1.76;100.00;97921.63;4952536;28;1552;-81
2023/03/03 00:58:47;;;;;;;;;;;-1.10;99.90;;;-1.73;100.00;97924.22;4967309;28;1890;-81
2023/03/03 01:01:15;;;;;;;;;;;-1.00;99.90;;;-1.85;100.00;97931.69;4951899;28;1575;-81
2023/03/03 01:03:42;;;;;;;;;;;-1.10;99.90;;;-1.92;100.00;97918.03;4953291;28;1666;-81
2023/03/03 01:06:10;;;;;;;;;;;-1.10;99.90;;;-1.94;100.00;97929.88;4969218;28;1512;-82
2023/03/03 01:08:37;;;;;;;;;;;-1.10;99.90;;;-1.92;100.00;97925.69;4952978;28;1599;-81
2023/03/03 01:11:22;;;;;;;;;;;-1.20;99.90;;;-1.93;100.00;97918.91;4967969;28;1891;-81
2023/03/03 01:13:51;;;;;;;;;;;-1.20;99.90;;;-1.94;100.00;97914.63;4965615;28;1650;-80
2023/03/03 01:16:18;;;;;;;;;;;-1.20;99.90;;;-2.04;100.00;97925.53;4966080;28;2084;-81
2023/03/03 01:18:46;;;;;;;;;;;-1.30;99.90;;;-1.94;100.00;97924.81;4972172;28;1776;-80
2023/03/03 01:21:13;;;;;;;;;;;-1.20;99.90;;;-2.06;100.00;97922.13;4969599;28;1738;-80
2023/03/03 01:23:39;;;;;;;;;;;-1.20;99.90;;;-1.91;100.00;97920.63;4967739;28;2003;-81
2023/03/03 01:26:09;;;;;;;;;;;-1.20;99.90;;;-1.83;100.00;97919.84;4966214;28;1606;-81
2023/03/03 01:28:37;;;;;;;;;;;-1.10;99.90;;;-2.14;100.00;97915.25;4953964;28;1582;-80
2023/03/03 01:31:05;;;;;;;;;;;-1.10;99.90;;;-2.14;100.00;97922.03;4967939;28;1946;-81
2023/03/03 01:33:33;;;;;;;;;;;-1.20;99.90;;;-2.04;100.00;97917.91;4971483;28;1615;-81
2023/03/03 01:36:01;;;;;;;;;;;-1.30;99.90;;;-2.04;100.00;97915.34;4970432;28;2066;-81
2023/03/03 01:38:28;;;;;;;;;;;-1.30;99.90;;;-2.13;100.00;97922.03;4957339;28;1605;-80
2023/03/03 01:40:58;;;;;;;;;;;-1.20;99.90;;;-2.12;100.00;97916.13;4973021;28;1607;-81
2023/03/03 01:43:26;;;;;;;;;;;-1.30;99.90;;;-2.05;100.00;97926.34;4958135;28;1617;-81
2023/03/03 01:45:56;;;;;;;;;;;-1.30;99.90;;;-2.21;100.00;97917.66;4970854;28;1630;-81
2023/03/03 01:48:26;;;;;;;;;;;-1.40;99.90;;;-2.17;100.00;97915.19;4969014;28;1464;-81
2023/03/03 01:51:02;;;;;;;;;;;-1.40;99.90;;;-2.23;100.00;97914.28;4968874;28;1911;-81
2023/03/03 01:53:54;;;;;;;;;;;-1.50;99.90;;;-2.17;100.00;97910.09;4970945;28;1624;-81
2023/03/03 01:56:20;;;;;;;;;;;-1.50;99.90;;;-2.24;100.00;97913.41;4985325;28;1706;-81
2023/03/03 01:59:00;;;;;;;;;;;-1.40;99.90;;;-2.37;100.00;97914.94;4956355;28;1594;-80
2023/03/03 02:01:28;;;;;;;;;;;-1.50;99.90;;;-2.26;100.00;97907.44;4972978;28;1565;-79
2023/03/03 02:03:55;;;;;;;;;;;-1.50;99.90;;;-2.26;100.00;97906.59;4972686;28;1560;-80
2023/03/03 02:06:25;;;;;;;;;;;-1.50;99.90;;;-2.35;100.00;97914.94;4974600;28;1398;-80
2023/03/03 02:09:10;;;;;;;;;;;-1.50;99.90;;;-2.51;100.00;97916.41;4960933;28;1649;-80
2023/03/03 02:11:38;;;;;;;;;;;-1.60;99.90;;;-2.47;100.00;97915.63;4973592;28;1935;-81
2023/03/03 02:14:05;;;;;;;;;;;-1.60;99.90;;;-2.33;100.00;97909.06;4974115;28;1709;-80
2023/03/03 02:16:32;;;;;;;;;;;-1.60;99.90;;;-2.33;100.00;97903.97;4973938;28;1795;-80
2023/03/03 02:18:59;;;;;;;;;;;-1.50;99.90;;;-2.41;100.00;97897.06;4975101;28;1685;-79
2023/03/03 02:21:27;;;;;;;;;;;-1.50;99.90;;;-2.36;100.00;97892.91;4958902;28;1621;-80
2023/03/03 02:24:10;;;;;;;;;;;-1.60;99.90;;;-2.37;100.00;97901.38;4974198;28;1656;-80
2023/03/03 02:26:40;;;;;;;;;;;-1.60;99.90;;;-2.37;100.00;97903.91;4975061;28;1626;-80
2023/03/03 02:29:08;;;;;;;;;;;-1.50;99.90;;;-2.35;100.00;97897.13;4954873;28;1666;-80
2023/03/03 02:31:37;;;;;;;;;;;-1.50;99.90;;;-2.41;100.00;97904.72;4973141;28;1907;-80
2023/03/03 02:34:05;;;;;;;;;;;-1.60;99.90;;;-2.37;100.00;97899.69;4960234;28;1598;-79
2023/03/03 02:36:36;;;;;;;;;;;-1.60;99.90;;;-2.23;100.00;97904.09;4963279;28;1588;-80
2023/03/03 02:39:18;;;;;;;;;;;-1.50;99.90;;;-2.22;100.00;97905.81;4978169;28;1683;-79
2023/03/03 02:42:01;;;;;;;;;;;-1.50;99.90;;;-2.00;100.00;97896.75;4970800;28;1672;-80
2023/03/03 02:44:30;;;;;;;;;;;-1.30;99.90;;;-1.90;100.00;97894.31;4960437;28;1630;-79
2023/03/03 02:46:57;;;;;;;;;;;-1.20;99.90;;;-1.80;100.00;97889.34;4972936;28;1817;-80
2023/03/03 02:49:31;;;;;;;;;;;-1.10;99.90;;;-2.17;100.00;97894.00;4957813;28;1570;-80
2023/03/03 02:52:05;;;;;;;;;;;-1.10;99.90;;;-1.96;100.00;97889.19;4972175;28;2035;-80
2023/03/03 02:54:33;;;;;;;;;;;-1.20;99.90;;;-1.88;100.00;97889.25;4975185;28;1633;-80
2023/03/03 02:57:01;;;;;;;;;;;-1.20;99.90;;;-2.01;100.00;97889.94;4988220;28;1829;-80
2023/03/03 02:59:28;;;;;;;;;;;-1.30;99.90;;;-2.37;100.00;97897.13;4954639;28;1651;-80
2023/03/03 03:01:55;;;;;;;;;;;-1.40;99.90;;;-2.27;100.00;97897.25;4975271;28;1606;-80
2023/03/03 03:04:26;;;;;;;;;;;-1.50;99.90;;;-2.07;100.00;97897.53;4971023;28;1685;-79
2023/03/03 03:06:54;;;;;;;;;;;-1.40;99.90;;;-1.85;100.00;97885.91;4972384;28;1604;-79
2023/03/03 03:09:23;;;;;;;;;;;-1.20;99.90;;;-1.74;100.00;97885.19;4969575;28;1700;-80
2023/03/03 03:11:50;;;;;;;;;;;-1.10;99.90;;;-2.01;100.00;97884.88;4974595;28;1966;-80
2023/03/03 03:14:17;;;;;;;;;;;-1.10;99.90;;;-2.01;100.00;97885.72;4976449;28;1583;-80
2023/03/03 03:16:44;;;;;;;;;;;-1.20;99.90;;;-2.40;100.00;97889.44;4969098;28;1597;-81
2023/03/03 03:19:13;;;;;;;;;;;-1.30;99.90;;;-2.18;100.00;97890.59;4976844;28;1599;-80
2023/03/03 03:21:40;;;;;;;;;;;-1.40;99.90;;;-2.24;100.00;97898.13;4972927;28;1648;-79
2023/03/03 03:24:07;;;;;;;;;;;-1.40;99.90;;;-2.09;100.00;97883.94;4973602;28;1262;-80
2023/03/03 03:26:34;;;;;;;;;;;-1.50;99.90;;;-2.35;100.00;97897.13;4970882;28;1612;-79
2023/03/03 03:29:00;;;;;;;;;;;-1.50;99.90;;;-2.20;100.00;97901.59;4972566;28;1644;-80
2023/03/03 03:31:28;;;;;;;;;;;-1.50;99.90;;;-2.00;100.00;97895.06;4971617;28;1906;-79
2023/03/03 03:33:55;;;;;;;;;;;-1.40;99.90;;;-1.94;100.00;97896.81;4972238;28;1572;-80
2023/03/03 03:36:22;;;;;;;;;;;-1.30;99.90;;;-2.06;100.00;97894.97;4971961;28;1632;-80
2023/03/03 03:38:49;;;;;;;;;;;-1.30;99.90;;;-1.93;100.00;97893.47;4972630;28;1585;-79
2023/03/03 03:41:16;;;;;;;;;;;-1.20;99.90;;;-2.03;100.00;97895.03;4973355;28;1592;-80
2023/03/03 03:43:43;;;;;;;;;;;-1.20;99.90;;;-2.16;100.00;97885.53;4973666;28;1644;-79
2023/03/03 03:46:10;;;;;;;;;;;-1.20;99.90;;;-2.22;100.00;97893.94;4974742;28;1502;-80
2023/03/03 03:48:37;;;;;;;;;;;-1.30;99.90;;;-2.16;100.00;97891.47;4974206;28;1586;-80
2023/03/03 03:51:04;;;;;;;;;;;-1.40;99.90;;;-2.13;100.00;97894.03;4992547;28;1902;-80
2023/03/03 03:53:31;;;;;;;;;;;-1.40;99.90;;;-2.16;100.00;97899.09;4975026;28;1607;-80
2023/03/03 03:55:58;;;;;;;;;;;-1.40;99.90;;;-2.03;100.00;97900.13;4960484;28;1593;-80
2023/03/03 03:58:27;;;;;;;;;;;-1.40;99.90;;;-1.95;100.00;97890.88;4976800;28;1620;-80
2023/03/03 04:00:54;;;;;;;;;;;-1.30;99.90;;;-2.05;100.00;97895.81;4974179;28;1654;-80
2023/03/03 04:03:21;;;;;;;;;;;-1.30;99.90;;;-2.02;100.00;97885.72;4972397;28;1908;-80
2023/03/03 04:05:49;;;;;;;;;;;-1.30;99.90;;;-2.08;100.00;97889.03;4971834;28;1629;-80
2023/03/03 04:08:16;;;;;;;;;;;-1.30;99.90;;;-2.15;100.00;97884.69;4971139;28;1639;-80
2023/03/03 04:10:44;;;;;;;;;;;-1.30;99.90;;;-2.28;100.00;97896.41;4972560;28;1557;-80
2023/03/03 04:13:10;;;;;;;;;;;-1.40;99.90;;;-2.25;100.00;97898.16;4960210;28;1910;-79
2023/03/03 04:15:37;;;;;;;;;;;-1.50;99.90;;;-2.50;100.00;97902.88;4957455;28;1609;-80
2023/03/03 04:18:04;;;;;;;;;;;-1.50;99.90;;;-2.39;100.00;97905.59;4975992;28;1602;-79
2023/03/03 04:20:32;;;;;;;;;;;-1.60;99.90;;;-2.30;100.00;97903.16;4973658;28;1695;-80
2023/03/03 04:22:59;;;;;;;;;;;-1.60;99.90;;;-2.42;100.00;97908.06;4972088;28;1622;-81
2023/03/03 04:25:26;;;;;;;;;;;-1.60;99.90;;;-2.39;100.00;97910.66;4954469;28;1659;-80
2023/03/03 04:27:53;;;;;;;;;;;-1.70;99.90;;;-2.26;100.00;97906.59;4941724;28;1846;-80
2023/03/03 04:30:20;;;;;;;;;;;-1.60;99.90;;;-2.11;100.00;97912.72;4976560;28;1701;-79
2023/03/03 04:32:46;;;;;;;;;;;-1.40;99.90;;;-1.98;100.00;97906.13;4977763;28;1964;-81
2023/03/03 04:35:13;;;;;;;;;;;-1.30;99.90;;;-2.15;100.00;97905.03;4972363;28;1598;-82
2023/03/03 04:37:41;;;;;;;;;;;-1.40;99.90;;;-2.25;100.00;97900.69;4979418;28;1831;-82
2023/03/03 04:40:08;;;;;;;;;;;-1.40;99.90;;;-2.22;100.00;97901.56;4975644;28;1599;-81
2023/03/03 04:42:35;;;;;;;;;;;-1.50;99.90;;;-2.30;100.00;97898.09;4975792;28;1579;-79
2023/03/03 04:45:03;;;;;;;;;;;-1.50;99.90;;;-2.43;100.00;97904.69;4965114;28;1544;-81
2023/03/03 04:47:31;;;;;;;;;;;-1.60;99.90;;;-2.38;100.00;97910.66;4975298;28;1564;-80
2023/03/03 04:49:59;;;;;;;;;;;-1.60;99.90;;;-2.36;100.00;97909.00;4969892;28;1568;-82
2023/03/03 04:52:26;;;;;;;;;;;-1.60;99.90;;;-2.44;100.00;97909.72;4976099;28;1891;-82
2023/03/03 04:54:53;;;;;;;;;;;-1.70;99.90;;;-2.47;100.00;97915.63;4984421;28;1486;-82
2023/03/03 04:57:20;;;;;;;;;;;-1.70;99.90;;;-2.48;100.00;97921.56;4983413;28;1509;-82
2023/03/03 04:59:48;;;;;;;;;;;-1.70;99.90;;;-2.74;100.00;97924.56;4954574;28;1541;-80
2023/03/03 05:02:15;;;;;;;;;;;-1.80;99.90;;;-2.56;100.00;97923.13;4979103;28;1643;-81
2023/03/03 05:04:42;;;;;;;;;;;-1.80;99.90;;;-2.67;100.00;97929.72;4972193;28;1532;-81
2023/03/03 05:07:09;;;;;;;;;;;-1.80;99.90;;;-2.64;100.00;97930.63;4957835;28;1570;-82
2023/03/03 05:09:37;;;;;;;;;;;-1.80;99.90;;;-2.46;100.00;97931.72;4969171;28;1471;-81
2023/03/03 05:12:04;;;;;;;;;;;-1.70;99.90;;;-2.40;100.00;97929.28;4970895;28;1891;-79
2023/03/03 05:14:32;;;;;;;;;;;-1.60;99.90;;;-2.46;100.00;97924.97;4972328;28;1383;-79
2023/03/03 05:17:00;;;;;;;;;;;-1.70;99.90;;;-2.65;100.00;97935.69;4970596;28;1543;-79
2023/03/03 05:19:27;;;;;;;;;;;-1.80;99.90;;;-2.72;100.00;97926.25;4973158;28;1889;-80
2023/03/03 05:21:54;;;;;;;;;;;-1.90;99.90;;;-2.80;100.00;97936.31;4966874;28;1747;-79
2023/03/03 05:24:22;;;;;;;;;;;-2.00;99.90;;;-2.68;100.00;97936.50;4978409;28;1496;-81
2023/03/03 05:26:49;;;;;;;;;;;-2.00;99.90;;;-2.66;100.00;97939.06;4953330;28;1591;-80
2023/03/03 05:29:16;;;;;;;;;;;-2.00;99.90;;;-2.69;100.00;97944.09;4971205;28;1626;-80
2023/03/03 05:31:44;;;;;;;;;;;-2.00;99.90;;;-2.85;100.00;97938.78;4974318;28;1888;-79
2023/03/03 05:34:16;;;;;;;;;;;-2.00;99.90;;;-2.86;100.00;97941.28;4980954;28;1522;-82
2023/03/03 05:36:44;;;;;;;;;;;-2.00;99.90;;;-2.85;100.00;97945.53;4973716;28;1567;-80
2023/03/03 05:39:12;;;;;;;;;;;-2.10;99.90;;;-2.93;100.00;97940.34;4973074;28;1645;-80
2023/03/03 05:41:42;;;;;;;;;;;-2.20;99.90;;;-2.83;100.00;97938.78;4981330;28;1519;-79
2023/03/03 05:44:09;;;;;;;;;;;-2.20;99.90;;;-2.87;100.00;97937.91;4972122;28;1827;-80
2023/03/03 05:46:37;;;;;;;;;;;-2.20;99.90;;;-2.93;100.00;97944.56;4967052;28;1407;-81
2023/03/03 05:49:06;;;;;;;;;;;-2.20;99.90;;;-2.92;100.00;97953.88;4968587;28;1443;-81
2023/03/03 05:51:32;;;;;;;;;;;-2.20;99.90;;;-3.02;100.00;97946.09;4972903;28;1891;-81
2023/03/03 05:54:00;;;;;;;;;;;-2.30;99.90;;;-3.12;100.00;97962.03;4975850;28;1543;-81
2023/03/03 05:56:27;;;;;;;;;;;-2.30;99.90;;;-3.11;100.00;97967.97;4975981;28;1569;-81
2023/03/03 05:58:56;;;;;;;;;;;-2.40;99.90;;;-3.06;100.00;97981.59;4957009;28;1505;-81
2023/03/03 06:01:32;;;;;;;;;;;-2.30;99.90;;;-3.01;100.00;97972.34;4975429;28;1541;-82
2023/03/03 06:03:59;;;;;;;;;;;-2.20;99.90;;;-3.17;100.00;97984.81;4974685;28;1548;-81
2023/03/03 06:06:27;;;;;;;;;;;-2.20;99.90;;;-3.30;100.00;97982.84;4974675;28;1486;-81
2023/03/03 06:08:55;;;;;;;;;;;-2.30;99.90;;;-3.37;100.00;97991.19;4987623;28;1542;-82
2023/03/03 06:11:26;;;;;;;;;;;-2.50;99.90;;;-3.31;100.00;98001.44;4971959;28;1573;-82
2023/03/03 06:13:52;;;;;;;;;;;-2.50;99.90;;;-3.37;100.00;98001.34;4977637;28;1973;-82
2023/03/03 06:16:21;;;;;;;;;;;-2.50;99.90;;;-3.15;100.00;98002.56;4967216;28;1401;-80
2023/03/03 06:18:48;;;;;;;;;;;-2.40;99.90;;;-3.39;100.00;97996.22;4977861;28;1543;-79
2023/03/03 06:21:15;;;;;;;;;;;-2.40;99.90;;;-3.50;100.00;97996.84;4976766;28;1475;-80
2023/03/03 06:23:42;;;;;;;;;;;-2.40;99.90;;;-3.33;100.00;97998.03;4979344;28;1548;-80
2023/03/03 06:26:10;;;;;;;;;;;-2.40;99.90;;;-3.17;100.00;98007.66;4964876;28;1445;-79
2023/03/03 06:28:36;;;;;;;;;;;-2.40;99.90;;;-3.09;100.00;98007.78;4962391;28;1329;-81
2023/03/03 06:31:04;;;;;;;;;;;-2.30;99.90;;;-3.12;100.00;98005.19;4975090;28;1357;-80
2023/03/03 06:33:31;;;;;;;;;;;-2.30;99.90;;;-2.98;100.00;97998.66;4973474;28;1989;-80
2023/03/03 06:35:58;;;;;;;;;;;-2.30;99.90;;;-3.07;100.00;98001.03;4963718;28;1206;-80
2023/03/03 06:38:25;;;;;;;;;;;-2.20;99.90;;;-3.17;100.00;98004.22;4964575;28;1619;-80
2023/03/03 06:40:52;;;;;;;;;;;-2.20;99.90;;;-3.13;100.00;97998.38;4975618;28;1309;-80
2023/03/03 06:43:19;;;;;;;;;;;-2.20;99.90;;;-3.13;100.00;98000.94;4981038;28;1506;-80
2023/03/03 06:45:46;;;;;;;;;;;-2.10;99.90;;;-2.97;100.00;97996.97;4974600;28;1495;-80
2023/03/03 06:48:13;;;;;;;;;;;-2.10;99.90;;;-3.04;100.00;97997.69;4976529;28;1457;-80
2023/03/03 06:50:41;;;;;;;;;;;-2.20;99.90;;;-3.05;100.00;98001.94;4975025;28;2005;-80
2023/03/03 06:53:13;;;;;;;;;;;-2.10;99.90;;;-2.89;100.00;98005.59;4972728;28;1911;-80
2023/03/03 06:55:43;;;;;;;;;;;-2.00;99.90;;;-3.03;100.00;98009.59;4982943;28;1388;-82
2023/03/03 06:58:20;;;;;;;;;;;-2.00;99.90;;;-3.00;100.00;98015.56;4973985;28;1352;-81
2023/03/03 07:00:56;;;;;;;;;;;-2.00;99.90;;;-3.05;100.00;98012.09;4975439;28;1579;-81
2023/03/03 07:03:28;;;;;;;;;;;-2.00;99.90;;;-2.93;100.00;98014.00;4990895;28;1584;-82
2023/03/03 07:05:56;;;;;;;;;;;-1.90;99.90;;;-2.94;100.00;98022.44;4978334;28;1383;-81
2023/03/03 07:08:24;;;;;;;;;;;-1.90;99.90;;;-2.77;100.00;98033.75;4977156;28;1401;-81
2023/03/03 07:10:52;;;;;;;;;;;-1.90;99.90;;;-2.73;100.00;98029.59;4964116;28;1663;-81
2023/03/03 07:13:19;;;;;;;;;;;-1.80;99.90;;;-2.72;100.00;98030.44;4977843;28;1956;-81
2023/03/03 07:15:48;;;;;;;;;;;-1.70;99.90;;;-2.63;100.00;98030.59;4984517;28;1709;-81
2023/03/03 07:18:46;;;;;;;;;;;-1.60;99.90;;;-2.52;100.00;98035.00;4994212;28;1430;-81
2023/03/03 07:21:16;;;;;;;;;;;-1.50;99.90;;;-2.61;100.00;98039.09;4976162;28;1394;-81
2023/03/03 07:23:44;;;;;;;;;;;-1.60;99.90;;;-2.35;100.00;98039.50;4971911;28;1476;-81
2023/03/03 07:26:16;;;;;;;;;;;-1.50;99.90;;;-2.16;100.00;98038.13;4976616;28;1457;-81
2023/03/03 07:29:07;;;;;;;;;;;-1.30;99.90;;;-1.99;100.00;98040.91;4954451;28;1486;-81
2023/03/03 07:31:39;;;;;;;;;;;-1.20;99.90;;;-1.90;100.00;98039.34;4979299;28;1642;-81
2023/03/03 07:34:19;;;;;;;;;;;-1.00;99.90;;;-1.75;100.00;98042.97;4988665;28;1956;-81
2023/03/03 07:36:48;;;;;;;;;;;-0.90;99.90;;;-1.48;100.00;98048.41;4962863;28;1488;-81
2023/03/03 07:39:30;;;;;;;;;;;-0.60;99.90;;;-1.40;100.00;98051.03;4977027;28;1565;-81
2023/03/03 07:42:20;;;;;;;;;;;-0.50;99.90;;;-1.30;100.00;98054.53;4973645;28;1406;-81
2023/03/03 07:44:54;;;;;;;;;;;-0.30;99.90;;;-0.98;100.00;98054.94;4980850;28;1633;-80
2023/03/03 07:47:39;;;;;;;;;;;-0.10;99.90;;;-0.79;100.00;98055.97;4995288;28;1457;-80
2023/03/03 07:50:17;;;;;;;;;;;0.10;99.90;;;-0.08;100.00;98044.69;4977260;28;1434;-81
2023/03/03 07:52:58;;;;;;;;;;;0.70;99.90;;;0.65;100.00;98048.50;4979927;28;1907;-81
2023/03/03 07:55:38;;;;;;;;;;;1.30;99.90;;;1.29;100.00;98050.41;4974053;28;1373;-79
2023/03/03 07:58:15;;;;;;;;;;;2.00;99.90;;;1.98;100.00;98037.63;4977212;28;1452;-80
2023/03/03 08:00:42;;;;;;;;;;;2.60;99.90;;;2.29;100.00;98033.31;4978034;28;1661;-80
2023/03/03 08:03:19;;;;;;;;;;;2.90;99.90;;;2.89;100.00;98025.41;4977159;28;1341;-80
2023/03/03 08:05:47;;;;;;;;;;;3.50;99.90;;;2.89;100.00;98027.13;4973234;28;1600;-80
2023/03/03 08:08:28;;;;;;;;;;;3.70;99.90;;;3.27;100.00;98019.22;4971660;28;1422;-82
2023/03/03 08:11:00;;;;;;;;;;;4.00;99.90;;;3.43;100.00;98026.81;4977116;28;1675;-81
2023/03/03 08:13:32;;;;;;;;;;;4.30;99.90;;;3.58;100.00;98023.28;4961529;28;1982;-81
2023/03/03 08:16:04;;;;;;;;;;;4.40;99.90;;;3.75;100.00;98019.72;4974257;28;1395;-81
2023/03/03 08:18:49;;;;;;;;;;;4.60;99.90;;;3.94;100.00;98017.00;4971874;28;1563;-81
2023/03/03 08:21:20;;;;;;;;;;;4.90;99.90;;;4.15;100.00;98009.09;4971778;28;1461;-81
2023/03/03 08:23:52;;;;;;;;;;;5.30;99.90;;;4.25;100.00;98011.56;4969801;28;1569;-81
2023/03/03 08:26:21;;;;;;;;;;;5.40;99.90;;;4.81;100.00;98008.34;4970817;28;2064;-81
2023/03/03 08:28:49;;;;;;;;;;;5.50;99.90;;;4.67;100.00;98007.66;4972574;28;1410;-81
2023/03/03 08:31:16;;;;;;;;;;;5.60;99.90;;;4.48;100.00;98004.44;4971019;28;1415;-81
2023/03/03 08:34:00;;;;;;;;;;;5.50;99.90;;;4.82;100.00;98006.63;4963065;28;1993;-81
2023/03/03 08:36:27;;;;;;;;;;;5.90;99.90;;;4.93;100.00;98009.91;4973005;28;1403;-81
2023/03/03 08:38:54;;;;;;;;;;;6.40;99.90;;;5.32;100.00;98017.94;4972377;28;1448;-81
2023/03/03 08:41:21;;;;;;;;;;;6.50;99.90;;;4.83;100.00;98008.31;4963158;28;1507;-81
2023/03/03 08:43:48;;;;;;;;;;;6.30;99.90;;;4.69;100.00;98021.34;4974099;28;1505;-81
2023/03/03 08:46:15;;;;;;;;;;;6.40;99.90;;;5.16;100.00;98016.47;4955347;28;1421;-80
2023/03/03 08:48:42;;;;;;;;;;;;;;;4.88;100.00;98003.09;4968335;28;1653;-81
2023/03/03 08:51:09;;;;;;;;;;;6.40;99.90;;;4.82;100.00;98010.03;4969507;28;1387;-81
2023/03/03 08:53:37;;;;;;;;;;;6.30;99.90;;;4.60;100.00;98016.31;4968829;28;1891;-81
2023/03/03 08:56:05;;;;;;;;;;;6.20;99.90;;;4.63;100.00;98021.44;4971677;28;1601;-81
2023/03/03 08:58:32;;;;;;;;;;;6.40;99.90;;;4.42;100.00;98030.22;4970103;28;1595;-81
2023/03/03 09:01:05;;;;;;;;;;;6.40;99.90;;;4.68;100.00;98024.78;4971596;28;1559;-82
2023/03/03 09:03:32;;;;;;;;;;;6.20;99.90;;;4.74;100.00;98032.41;4976057;28;1408;-81
2023/03/03 09:05:59;;;;;;;;;;;6.20;99.90;;;4.52;100.00;98039.56;4969944;28;1528;-81
2023/03/03 09:08:26;;;;;;;;;;;6.30;99.90;;;4.28;100.00;98039.81;4970109;28;1514;-81
2023/03/03 09:10:54;;;;;;;;;;;6.10;99.90;;;4.44;100.00;98038.75;4970652;28;1590;-81
2023/03/03 09:13:21;;;;;;;;;;;5.50;99.90;;;4.80;100.00;98040.06;4974144;28;1980;-81
2023/03/03 09:15:49;;;;;;;;;;;5.70;99.90;;;4.28;100.00;98042.38;4955617;28;1546;-80
2023/03/03 09:18:17;;;;;;;;;;;5.30;99.90;;;4.34;100.00;98047.47;4975105;28;1352;-81
2023/03/03 09:20:46;;;;;;;;;;;5.30;99.90;;;4.28;100.00;98032.94;4973303;28;1800;-80
2023/03/03 09:23:22;;;;;;;;;;;5.20;99.90;;;4.34;100.00;98043.16;4973410;28;1378;-81
2023/03/03 09:25:50;;;;;;;;;;;5.30;99.90;;;4.08;100.00;98034.84;4973106;28;1445;-80
2023/03/03 09:28:29;;;;;;;;;;;5.00;99.90;;;3.63;100.00;98042.94;4972294;28;1486;-81
2023/03/03 09:30:58;;;;;;;;;;;4.80;99.90;;;3.61;100.00;98041.25;4976748;28;1453;-80
2023/03/03 09:33:43;;;;;;;;;;;4.60;99.90;;;3.58;100.00;98051.53;4987468;28;1883;-80
2023/03/03 09:36:22;;;;;;;;;;;4.70;99.90;;;3.81;100.00;98048.78;4973886;28;1403;-81
2023/03/03 09:38:51;;;;;;;;;;;4.70;99.90;;;3.49;100.00;98043.03;4975178;28;1830;-79
2023/03/03 09:41:43;;;;;;;;;;;4.50;99.90;;;3.35;100.00;98052.53;4989487;28;1405;-80
2023/03/03 09:44:33;;;;;;;;;;;4.40;99.90;;;3.33;100.00;98059.38;4971681;28;1405;-80
2023/03/03 09:47:32;;;;;;;;;;;4.40;99.90;;;3.38;100.00;98060.22;4969377;28;1451;-80
2023/03/03 09:50:39;;;;;;;;;;;4.50;99.90;;;3.34;100.00;98063.66;4971984;28;1549;-80
2023/03/03 09:53:16;;;;;;;;;;;4.40;99.90;;;3.74;100.00;98069.38;4976386;28;1891;-80
2023/03/03 09:56:03;;;;;;;;;;;4.60;99.90;;;3.85;100.00;98058.16;4970473;28;1473;-81
2023/03/03 09:58:48;;;;;;;;;;;4.80;99.90;;;3.89;100.00;98063.25;4970496;28;1439;-80
2023/03/03 10:01:24;;;;;;;;;;;4.80;99.90;;;3.62;100.00;98063.47;4972760;28;1467;-81
2023/03/03 10:04:29;;;;;;;;;;;4.90;99.90;;;3.72;100.00;98063.41;4974360;28;1430;-80
2023/03/03 10:07:21;;;;;;;;;;;4.70;99.90;;;3.85;100.00;98064.16;4972698;28;1766;-80
2023/03/03 10:10:14;;;;;;;;;;;4.80;99.90;;;3.77;100.00;98065.94;4974304;28;1634;-80
2023/03/03 10:12:58;;;;;;;;;;;4.90;99.90;;;3.74;100.00;98069.38;4983442;28;1989;-80
2023/03/03 10:15:41;;;;;;;;;;;4.90;99.90;;;3.91;100.00;98060.69;4966825;28;1410;-80
2023/03/03 10:18:32;;;;;;;;;;;4.90;99.90;;;3.90;100.00;98066.66;4975118;28;1470;-80
2023/03/03 10:21:09;;;;;;;;;;;5.00;99.90;;;4.08;100.00;98060.53;4970398;28;1822;-81
2023/03/03 10:23:42;;;;;;;;;;;5.00;99.90;;;4.17;100.00;98066.47;4973871;28;1632;-81
2023/03/03 10:26:27;;;;;;;;;;;5.20;99.90;;;4.12;100.00;98065.63;4971769;28;1416;-80
2023/03/03 10:29:19;;;;;;;;;;;5.30;99.90;;;4.24;100.00;98064.66;4969309;28;2401;-80
2023/03/03 10:32:17;;;;;;;;;;;5.40;99.90;;;4.38;100.00;98064.56;4973676;28;1504;-80
2023/03/03 10:35:18;;;;;;;;;;;5.40;99.90;;;4.63;100.00;98072.00;4969058;28;1985;-80
2023/03/03 10:38:19;;;;;;;;;;;5.50;99.90;;;4.66;100.00;98072.81;4969009;28;1573;-80
2023/03/03 10:41:09;;;;;;;;;;;5.60;99.90;;;4.70;100.00;98077.06;4969407;28;1681;-80
2023/03/03 10:43:56;;;;;;;;;;;5.60;99.90;;;4.84;100.00;98074.34;4972338;28;1469;-80
2023/03/03 10:46:45;;;;;;;;;;;5.80;99.90;;;4.67;100.00;98074.50;4972062;28;1472;-80
2023/03/03 10:49:21;;;;;;;;;;;5.80;99.90;;;4.70;100.00;98066.78;4969143;28;1551;-80
2023/03/03 10:52:12;;;;;;;;;;;5.80;99.90;;;4.71;100.00;98063.31;4976512;28;1701;-80
2023/03/03 10:55:12;;;;;;;;;;;5.90;99.90;;;4.91;100.00;98072.53;4974747;28;1975;-80
2023/03/03 10:57:58;;;;;;;;;;;5.90;99.90;;;4.97;100.00;98069.88;4972477;28;1452;-80
2023/03/03 11:00:38;;;;;;;;;;;6.10;99.90;;;5.02;100.00;98071.53;4978170;28;1722;-81
2023/03/03 11:03:27;;;;;;;;;;;6.10;99.90;;;5.27;100.00;98080.66;4974570;28;1897;-81
2023/03/03 11:06:35;;;;;;;;;;;6.20;99.90;;;5.29;100.00;98068.59;4975489;28;1424;-81
2023/03/03 11:09:10;;;;;;;;;;;6.30;99.90;;;5.35;100.00;98065.97;4980830;28;1620;-79
2023/03/03 11:11:54;;;;;;;;;;;6.40;99.90;;;5.50;100.00;98070.06;4961791;28;1576;-80
2023/03/03 11:14:29;;;;;;;;;;;6.50;99.90;;;5.53;100.00;98059.69;4975754;28;1985;-80
2023/03/03 11:17:04;;;;;;;;;;;6.70;99.90;;;5.57;100.00;98063.94;4978300;28;1607;-80
2023/03/03 11:19:51;;;;;;;;;;;6.70;99.90;;;5.65;100.00;98059.50;4973343;28;1368;-80
2023/03/03 11:22:27;;;;;;;;;;;6.60;99.90;;;5.46;100.00;98061.50;4979178;28;1375;-80
2023/03/03 11:25:14;;;;;;;;;;;6.70;99.90;;;5.86;100.00;98050.59;4976771;28;1408;-79
2023/03/03 11:27:59;;;;;;;;;;;6.80;99.90;;;6.01;100.00;98052.13;4972899;28;1694;-80
2023/03/03 11:30:37;;;;;;;;;;;7.00;99.90;;;6.01;100.00;98050.38;4976791;28;1944;-80
2023/03/03 11:33:17;;;;;;;;;;;7.10;99.90;;;5.95;100.00;98052.19;4978722;28;1982;-79
2023/03/03 11:36:03;;;;;;;;;;;7.00;99.90;;;5.89;100.00;98058.28;4972860;28;1543;-80
2023/03/03 11:38:41;;;;;;;;;;;7.00;99.90;;;6.30;100.00;98045.63;4973418;28;1517;-81
2023/03/03 11:41:31;;;;;;;;;;;7.10;99.90;;;6.45;100.00;98042.72;4973775;28;1623;-81
2023/03/03 11:44:36;;;;;;;;;;;7.40;99.90;;;6.59;100.00;98037.31;4975301;28;1416;-80
2023/03/03 11:47:21;;;;;;;;;;;7.60;99.90;;;6.63;100.00;98032.06;4974870;28;1432;-80
2023/03/03 11:50:15;;;;;;;;;;;7.60;99.90;;;6.44;100.00;98033.31;4990812;28;1528;-80